Time;durP1;ratioP1;P1;durP2;ratioP2;P2;SDS_P1;SDS_P2;PMS_P1;PMS_P2;Temp;Humidity;BMP_temperature;BMP_pressure;BME280_temperature;BME280_humidity;BME280_pressure;Samples;Min_cycle;Max_cycle;Signal;HPM_P1;HPM_P2
2023/06/29 00:01:54;;;;;;;9.43;8.63;;;18.60;99.90;;;;;;5038106;28;20220;-81
2023/06/29 00:04:21;;;;;;;9.05;8.25;;;18.70;99.90;;;;;;5038079;28;20202;-81
2023/06/29 00:06:49;;;;;;;9.10;8.20;;;18.70;99.90;;;;;;5038284;28;20621;-79
2023/06/29 00:09:16;;;;;;;9.50;8.60;;;18.70;99.90;;;;;;5033600;28;20192;-78
2023/06/29 00:11:43;;;;;;;8.98;8.18;;;18.70;99.90;;;;;;5038227;28;20318;-79
2023/06/29 00:14:11;;;;;;;10.57;9.32;;;18.60;99.90;;;;;;5038343;28;20211;-78
2023/06/29 00:16:38;;;;;;;9.57;8.52;;;18.60;99.90;;;;;;5037489;28;20212;-79
2023/06/29 00:19:07;;;;;;;9.57;8.57;;;18.60;99.90;;;;;;5038118;28;20206;-78
2023/06/29 00:21:34;;;;;;;10.52;8.77;;;18.60;99.90;;;;;;5037969;28;20216;-79
2023/06/29 00:24:01;;;;;;;9.30;8.13;;;18.60;99.90;;;;;;5022687;28;20642;-79
2023/06/29 00:26:28;;;;;;;10.30;9.30;;;18.50;99.90;;;;;;5017727;28;20210;-80
2023/06/29 00:28:55;;;;;;;11.93;9.82;;;18.50;99.90;;;;;;5018610;28;20207;-79
2023/06/29 00:31:24;;;;;;;9.63;8.82;;;18.40;99.90;;;;;;5017946;28;20235;-80
2023/06/29 00:33:51;;;;;;;10.32;8.32;;;18.50;99.90;;;;;;5018197;28;20204;-81
2023/06/29 00:36:17;;;;;;;11.18;9.25;;;18.40;99.90;;;;;;5018202;28;20669;-79
2023/06/29 00:38:44;;;;;;;9.90;8.77;;;18.50;99.90;;;;;;5020343;28;20210;-81
2023/06/29 00:41:11;;;;;;;10.25;8.85;;;18.60;99.90;;;;;;5037406;28;20621;-80
2023/06/29 00:43:38;;;;;;;11.48;8.77;;;18.60;99.90;;;;;;5037946;28;20214;-81
2023/06/29 00:46:07;;;;;;;9.75;8.63;;;18.60;99.90;;;;;;5037531;28;20215;-80
2023/06/29 00:48:36;;;;;;;9.82;8.77;;;18.60;99.90;;;;;;5037550;28;20238;-80
2023/06/29 00:51:04;;;;;;;10.20;9.20;;;18.50;99.90;;;;;;5036361;28;20605;-82
2023/06/29 00:53:30;;;;;;;9.55;8.65;;;18.50;99.90;;;;;;5037084;28;20231;-82
2023/06/29 00:55:58;;;;;;;10.05;9.10;;;18.40;99.90;;;;;;5036574;28;20200;-80
2023/06/29 00:58:26;;;;;;;10.80;8.95;;;18.30;99.90;;;;;;5030770;28;20212;-82
2023/06/29 01:00:52;;;;;;;8.82;8.02;;;18.30;99.90;;;;;;5036890;28;20223;-79
2023/06/29 01:03:20;;;;;;;9.70;8.80;;;18.20;99.90;;;;;;5036914;28;20199;-81
2023/06/29 01:05:50;;;;;;;8.70;8.00;;;18.20;99.90;;;;;;5033271;28;20199;-80
2023/06/29 01:08:20;;;;;;;9.02;8.15;;;18.20;99.90;;;;;;5036960;28;20199;-79
2023/06/29 01:10:49;;;;;;;9.50;8.52;;;18.30;99.90;;;;;;5034897;28;20223;-80
2023/06/29 01:13:18;;;;;;;11.35;8.80;;;18.20;99.90;;;;;;5032573;28;20200;-81
2023/06/29 01:15:46;;;;;;;9.27;8.30;;;18.20;99.90;;;;;;5027284;28;20208;-80
2023/06/29 01:18:14;;;;;;;9.73;8.25;;;18.00;99.90;;;;;;5037400;28;20199;-79
2023/06/29 01:20:41;;;;;;;10.13;8.57;;;18.00;99.90;;;;;;5036882;28;20211;-81
2023/06/29 01:23:12;;;;;;;9.25;8.15;;;18.00;99.90;;;;;;5036714;28;20202;-81
2023/06/29 01:25:40;;;;;;;10.60;8.05;;;18.10;99.90;;;;;;5017956;28;20593;-80
2023/06/29 01:28:08;;;;;;;8.27;7.50;;;18.10;99.90;;;;;;5036444;28;20196;-81
2023/06/29 01:30:39;;;;;;;8.75;7.50;;;18.10;99.90;;;;;;5035843;28;20227;-81
2023/06/29 01:33:06;;;;;;;10.35;8.00;;;18.20;99.90;;;;;;5036659;28;20196;-79
2023/06/29 01:35:33;;;;;;;8.95;7.65;;;18.20;99.90;;;;;;5035846;28;20206;-82
2023/06/29 01:38:06;;;;;;;8.50;7.70;;;18.20;99.90;;;;;;5036263;28;20873;-79
2023/06/29 01:40:38;;;;;;;8.40;7.55;;;18.20;99.90;;;;;;5036398;28;20813;-80
2023/06/29 01:43:06;;;;;;;8.40;7.60;;;18.20;99.90;;;;;;5036622;28;20596;-82
2023/06/29 01:45:35;;;;;;;8.50;7.63;;;18.20;99.90;;;;;;5035784;28;20680;-81
2023/06/29 01:48:03;;;;;;;9.25;7.60;;;18.20;99.90;;;;;;5035972;28;20199;-79
2023/06/29 01:50:30;;;;;;;8.48;7.55;;;18.20;99.90;;;;;;5027552;28;20231;-81
2023/06/29 01:52:57;;;;;;;8.35;7.55;;;18.20;99.90;;;;;;5036273;28;20195;-80
2023/06/29 01:55:25;;;;;;;9.68;8.75;;;18.20;99.90;;;;;;5034871;28;20203;-82
2023/06/29 01:57:52;;;;;;;9.15;8.25;;;18.10;99.90;;;;;;5021970;28;20200;-83
2023/06/29 02:00:21;;;;;;;11.55;7.70;;;18.00;99.90;;;;;;5036313;28;20206;-82
2023/06/29 02:02:48;;;;;;;8.25;7.45;;;18.00;99.90;;;;;;5029006;28;20195;-82
2023/06/29 02:05:15;;;;;;;8.00;7.22;;;18.00;99.90;;;;;;5035384;28;20203;-81
2023/06/29 02:07:41;;;;;;;10.43;8.20;;;18.10;99.90;;;;;;5036760;28;20196;-80
2023/06/29 02:10:09;;;;;;;9.13;7.93;;;18.00;99.90;;;;;;5035712;28;20589;-79
2023/06/29 02:12:36;;;;;;;8.82;7.10;;;18.10;99.90;;;;;;5035803;28;20219;-82
2023/06/29 02:15:02;;;;;;;9.18;8.02;;;18.10;99.90;;;;;;5035243;28;20722;-79
2023/06/29 02:17:30;;;;;;;7.82;7.03;;;18.00;99.90;;;;;;5035853;28;20203;-81
2023/06/29 02:19:57;;;;;;;12.10;7.63;;;18.00;99.90;;;;;;5016387;28;20212;-81
2023/06/29 02:22:24;;;;;;;8.70;7.68;;;18.10;99.90;;;;;;5017448;28;20294;-80
2023/06/29 02:24:51;;;;;;;9.73;7.28;;;18.10;99.90;;;;;;5033455;28;20200;-79
2023/06/29 02:27:18;;;;;;;9.10;7.18;;;18.00;99.90;;;;;;5035213;28;20230;-80
2023/06/29 02:29:44;;;;;;;8.30;6.93;;;18.10;99.90;;;;;;5035350;28;20203;-79
2023/06/29 02:32:11;;;;;;;9.43;6.97;;;18.20;99.90;;;;;;5035159;28;20223;-80
2023/06/29 02:34:39;;;;;;;9.43;8.40;;;18.10;99.90;;;;;;5035285;28;20204;-80
2023/06/29 02:37:06;;;;;;;10.85;8.88;;;18.00;99.90;;;;;;5035741;28;20287;-81
2023/06/29 02:39:33;;;;;;;12.30;8.82;;;18.00;99.90;;;;;;5036218;28;20581;-79
2023/06/29 02:41:59;;;;;;;10.93;9.32;;;18.00;99.90;;;;;;5035484;28;20221;-82
2023/06/29 02:44:26;;;;;;;9.68;8.63;;;18.00;99.90;;;;;;5035005;28;20199;-81
2023/06/29 02:46:53;;;;;;;11.55;8.35;;;18.20;99.90;;;;;;5035821;28;20199;-81
2023/06/29 02:49:20;;;;;;;10.40;8.00;;;18.20;99.90;;;;;;5040043;28;20207;-81
2023/06/29 02:51:48;;;;;;;12.07;7.57;;;18.20;99.90;;;;;;5036310;28;20227;-82
2023/06/29 02:54:15;;;;;;;11.95;8.20;;;18.10;99.90;;;;;;5039837;28;20196;-81
2023/06/29 02:56:41;;;;;;;14.48;7.65;;;18.10;99.90;;;;;;5040160;28;20206;-81
2023/06/29 02:59:08;;;;;;;14.48;10.65;;;18.20;99.90;;;;;;5039709;28;20207;-79
2023/06/29 03:01:35;;;;;;;12.27;8.60;;;18.00;99.90;;;;;;5039860;28;20231;-82
2023/06/29 03:04:02;;;;;;;12.88;9.65;;;18.00;99.90;;;;;;5040106;28;20196;-81
2023/06/29 03:06:28;;;;;;;15.65;10.80;;;17.90;99.90;;;;;;5038837;28;20200;-82
2023/06/29 03:08:56;;;;;;;13.45;11.18;;;18.00;99.90;;;;;;5039973;28;20208;-81
2023/06/29 03:11:23;;;;;;;12.07;10.25;;;18.00;99.90;;;;;;5039363;28;20228;-83
2023/06/29 03:13:51;;;;;;;14.63;11.00;;;17.90;99.90;;;;;;5039529;28;20200;-81
2023/06/29 03:16:17;;;;;;;13.32;8.77;;;17.90;99.90;;;;;;5039041;28;20215;-82
2023/06/29 03:18:44;;;;;;;13.20;9.00;;;17.60;99.90;;;;;;5038960;28;20214;-81
2023/06/29 03:21:11;;;;;;;18.70;9.02;;;17.40;99.90;;;;;;5038436;28;20310;-80
2023/06/29 03:23:38;;;;;;;14.23;9.27;;;17.40;99.90;;;;;;5037067;28;20207;-80
2023/06/29 03:26:06;;;;;;;15.52;9.55;;;17.40;99.90;;;;;;5036656;28;20309;-79
2023/06/29 03:28:32;;;;;;;15.60;9.23;;;17.40;99.90;;;;;;5037360;28;20208;-80
2023/06/29 03:30:59;;;;;;;10.60;8.75;;;17.30;99.90;;;;;;5037830;28;20589;-81
2023/06/29 03:33:26;;;;;;;12.82;8.88;;;17.50;99.90;;;;;;5038480;28;20213;-79
2023/06/29 03:35:53;;;;;;;14.60;8.80;;;17.60;99.90;;;;;;5038790;28;20200;-80
2023/06/29 03:38:19;;;;;;;17.05;9.65;;;17.70;99.90;;;;;;5038832;28;20594;-80
2023/06/29 03:40:46;;;;;;;9.80;8.75;;;17.70;99.90;;;;;;5038996;28;20696;-78
2023/06/29 03:43:14;;;;;;;13.77;8.80;;;17.70;99.90;;;;;;5038912;28;20203;-78
2023/06/29 03:45:41;;;;;;;15.93;8.68;;;17.80;99.90;;;;;;5038192;28;20206;-78
2023/06/29 03:48:08;;;;;;;14.65;9.13;;;17.80;99.90;;;;;;5038211;28;20199;-81
2023/06/29 03:50:35;;;;;;;10.07;8.85;;;17.80;99.90;;;;;;5038018;28;20203;-80
2023/06/29 03:53:02;;;;;;;11.30;8.95;;;17.90;99.90;;;;;;5038109;28;20578;-79
2023/06/29 03:55:28;;;;;;;13.15;9.57;;;17.90;99.90;;;;;;5037459;28;20212;-81
2023/06/29 03:57:57;;;;;;;13.88;9.40;;;17.90;99.90;;;;;;5037768;28;20211;-79
2023/06/29 04:00:25;;;;;;;11.90;8.70;;;17.90;99.90;;;;;;5038432;28;20231;-78
2023/06/29 04:02:52;;;;;;;14.10;9.02;;;17.90;99.90;;;;;;5037494;28;20211;-80
2023/06/29 04:05:19;;;;;;;13.77;9.23;;;17.80;99.90;;;;;;5036869;28;20208;-80
2023/06/29 04:07:46;;;;;;;11.45;8.52;;;17.90;99.90;;;;;;5037783;28;20679;-79
2023/06/29 04:10:13;;;;;;;11.07;9.10;;;17.90;99.90;;;;;;5037884;28;20212;-81
2023/06/29 04:12:39;;;;;;;11.98;9.43;;;17.90;99.90;;;;;;5038095;28;20223;-80
2023/06/29 04:15:07;;;;;;;11.68;9.20;;;17.90;99.90;;;;;;5038194;28;20702;-79
2023/06/29 04:17:35;;;;;;;13.02;9.25;;;17.90;99.90;;;;;;5038648;28;20203;-80
2023/06/29 04:20:03;;;;;;;11.43;9.48;;;17.90;99.90;;;;;;5037818;28;20214;-79
2023/06/29 04:22:30;;;;;;;11.50;8.50;;;18.10;99.90;;;;;;5037759;28;20265;-80
2023/06/29 04:24:57;;;;;;;12.35;8.65;;;18.00;99.90;;;;;;5037492;28;20214;-79
2023/06/29 04:27:24;;;;;;;9.30;8.27;;;17.90;99.90;;;;;;5037146;28;20208;-81
2023/06/29 04:29:51;;;;;;;9.35;8.45;;;18.00;99.90;;;;;;5035702;28;20203;-80
2023/06/29 04:32:17;;;;;;;13.57;8.77;;;18.00;99.90;;;;;;5032777;28;20904;-81
2023/06/29 04:34:47;;;;;;;10.27;8.27;;;18.20;99.90;;;;;;5036868;28;20212;-79
2023/06/29 04:37:14;;;;;;;9.50;8.50;;;18.30;99.90;;;;;;5037054;28;20303;-80
2023/06/29 04:39:41;;;;;;;11.50;8.90;;;18.40;99.90;;;;;;5037382;28;20199;-80
2023/06/29 04:42:12;;;;;;;10.30;8.60;;;18.30;99.90;;;;;;5036924;28;20226;-80
2023/06/29 04:44:39;;;;;;;10.07;9.05;;;18.30;99.90;;;;;;5036829;28;20294;-80
2023/06/29 04:47:07;;;;;;;11.30;7.70;;;18.40;99.90;;;;;;5037187;28;20207;-81
2023/06/29 04:49:37;;;;;;;10.77;8.15;;;18.50;99.90;;;;;;5037263;28;20674;-79
2023/06/29 04:52:07;;;;;;;10.52;8.25;;;18.50;99.90;;;;;;5037214;28;20236;-79
2023/06/29 04:54:34;;;;;;;9.75;8.27;;;18.60;99.90;;;;;;5037051;28;20207;-81
2023/06/29 04:57:01;;;;;;;10.45;7.28;;;18.60;99.90;;;;;;5037736;28;20580;-79
2023/06/29 04:59:29;;;;;;;11.43;8.23;;;18.60;99.90;;;;;;5037734;28;20203;-79
2023/06/29 05:01:55;;;;;;;10.05;8.68;;;18.80;99.90;;;;;;5036677;28;20219;-79
2023/06/29 05:04:22;;;;;;;11.23;9.00;;;18.80;99.90;;;;;;5036096;28;20203;-79
2023/06/29 05:06:49;;;;;;;14.35;8.73;;;18.70;99.90;;;;;;5036227;28;20672;-80
2023/06/29 05:09:17;;;;;;;13.15;9.90;;;18.60;99.90;;;;;;5035972;28;20200;-80
2023/06/29 05:11:44;;;;;;;11.18;9.43;;;18.60;99.90;;;;;;5035211;28;20223;-79
2023/06/29 05:14:11;;;;;;;13.25;10.15;;;18.70;99.90;;;;;;5037213;28;20200;-80
2023/06/29 05:16:38;;;;;;;11.55;9.07;;;18.70;99.90;;;;;;5037096;28;20219;-81
2023/06/29 05:19:05;;;;;;;11.93;9.73;;;18.80;99.90;;;;;;5038840;28;20199;-79
2023/06/29 05:21:31;;;;;;;12.05;9.38;;;18.90;99.90;;;;;;5038040;28;20238;-81
2023/06/29 05:23:58;;;;;;;12.02;9.18;;;19.00;99.90;;;;;;5037140;28;20207;-80
2023/06/29 05:26:26;;;;;;;11.75;8.85;;;19.00;99.90;;;;;;5036431;28;20238;-81
2023/06/29 05:28:53;;;;;;;11.27;9.65;;;19.10;99.90;;;;;;5037223;28;20597;-79
2023/06/29 05:31:20;;;;;;;14.52;9.43;;;19.10;99.90;;;;;;5036198;28;20722;-81
2023/06/29 05:33:47;;;;;;;13.45;8.93;;;19.10;99.90;;;;;;5036101;28;20207;-81
2023/06/29 05:36:13;;;;;;;10.88;9.20;;;19.20;99.90;;;;;;5035634;28;20203;-79
2023/06/29 05:38:40;;;;;;;10.85;8.43;;;19.40;99.90;;;;;;5036257;28;20214;-81
2023/06/29 05:41:07;;;;;;;10.13;8.52;;;19.50;99.90;;;;;;5035858;28;20227;-81
2023/06/29 05:43:35;;;;;;;13.25;8.98;;;19.30;99.90;;;;;;5036189;28;20200;-80
2023/06/29 05:46:02;;;;;;;11.73;9.73;;;19.30;99.90;;;;;;5035617;28;20210;-80
2023/06/29 05:48:29;;;;;;;12.23;9.55;;;19.40;99.90;;;;;;5036404;28;20207;-81
2023/06/29 05:50:56;;;;;;;13.52;10.00;;;19.40;99.90;;;;;;5036292;28;20245;-79
2023/06/29 05:53:22;;;;;;;14.55;10.02;;;19.50;99.90;;;;;;5035831;28;20588;-80
2023/06/29 05:55:49;;;;;;;11.98;9.68;;;19.50;99.90;;;;;;5035518;28;20627;-80
2023/06/29 05:58:16;;;;;;;13.18;9.55;;;19.70;99.90;;;;;;5036532;28;20231;-79
2023/06/29 06:00:44;;;;;;;17.08;10.73;;;19.80;99.90;;;;;;5035534;28;20227;-79
2023/06/29 06:03:12;;;;;;;17.33;9.98;;;19.60;99.90;;;;;;5035876;28;20235;-81
2023/06/29 06:05:38;;;;;;;16.55;9.65;;;19.70;99.90;;;;;;5035720;28;20262;-80
2023/06/29 06:08:05;;;;;;;13.43;9.05;;;19.80;99.90;;;;;;5035830;28;20302;-80
2023/06/29 06:10:32;;;;;;;13.18;9.40;;;20.00;99.90;;;;;;5035419;28;20235;-81
2023/06/29 06:12:59;;;;;;;12.90;9.20;;;20.10;99.90;;;;;;5035512;28;20223;-79
2023/06/29 06:15:26;;;;;;;13.48;9.63;;;20.20;99.90;;;;;;5034853;28;20212;-80
2023/06/29 06:17:54;;;;;;;10.98;8.52;;;20.30;99.90;;;;;;5035985;28;20203;-80
2023/06/29 06:20:21;;;;;;;12.95;8.57;;;20.50;99.90;;;;;;5036077;28;20200;-79
2023/06/29 06:22:48;;;;;;;11.50;8.82;;;20.50;99.90;;;;;;5035205;28;20211;-79
2023/06/29 06:25:17;;;;;;;15.48;9.40;;;20.50;99.90;;;;;;5034838;28;20204;-81
2023/06/29 06:27:44;;;;;;;11.70;8.50;;;20.60;99.90;;;;;;5035508;28;20735;-80
2023/06/29 06:30:11;;;;;;;13.63;8.95;;;20.50;99.90;;;;;;5035267;28;20210;-81
2023/06/29 06:32:39;;;;;;;13.88;8.07;;;20.50;99.90;;;;;;5035607;28;20282;-79
2023/06/29 06:35:09;;;;;;;11.75;9.00;;;20.70;99.90;;;;;;5035597;28;20726;-81
2023/06/29 06:37:37;;;;;;;12.30;9.43;;;20.80;99.90;;;;;;5035662;28;20212;-79
2023/06/29 06:40:07;;;;;;;13.32;9.35;;;20.80;99.90;;;;;;5035389;28;20694;-81
2023/06/29 06:42:34;;;;;;;14.23;9.50;;;20.90;99.90;;;;;;5035322;28;20215;-79
2023/06/29 06:45:03;;;;;;;12.60;8.25;;;20.90;99.90;;;;;;5028682;28;20656;-80
2023/06/29 06:47:30;;;;;;;14.10;8.35;;;20.80;99.90;;;;;;5035141;28;20265;-80
2023/06/29 06:49:57;;;;;;;12.45;7.00;;;20.80;99.90;;;;;;5033160;28;20286;-81
2023/06/29 06:52:25;;;;;;;10.93;6.57;;;21.10;99.90;;;;;;5032686;28;20233;-81
2023/06/29 06:54:52;;;;;;;12.13;7.22;;;21.20;99.90;;;;;;5034736;28;20206;-81
2023/06/29 06:57:19;;;;;;;13.02;7.15;;;21.10;99.90;;;;;;5034396;28;20207;-80
2023/06/29 06:59:46;;;;;;;12.63;7.13;;;21.20;99.90;;;;;;5035215;28;20200;-79
2023/06/29 07:02:13;;;;;;;10.20;6.32;;;21.50;99.90;;;;;;5035177;28;20216;-79
2023/06/29 07:04:40;;;;;;;9.63;6.30;;;21.50;99.90;;;;;;5034360;28;20215;-80
2023/06/29 07:07:08;;;;;;;11.20;6.20;;;21.40;99.90;;;;;;5035438;28;20751;-79
2023/06/29 07:09:36;;;;;;;10.23;5.25;;;21.40;99.90;;;;;;5035249;28;20206;-79
2023/06/29 07:12:03;;;;;;;8.70;5.28;;;21.60;99.90;;;;;;5035335;28;20223;-81
2023/06/29 07:14:29;;;;;;;9.98;5.18;;;21.60;99.90;;;;;;5034524;28;20218;-80
2023/06/29 07:16:56;;;;;;;10.27;5.13;;;21.60;99.90;;;;;;5034588;28;20622;-80
2023/06/29 07:19:23;;;;;;;10.13;5.07;;;21.80;99.90;;;;;;5034831;28;20211;-80
2023/06/29 07:21:50;;;;;;;8.63;5.30;;;21.40;99.90;;;;;;5035130;28;20221;-79
2023/06/29 07:24:16;;;;;;;11.18;5.07;;;21.70;99.90;;;;;;5034969;28;20285;-80
2023/06/29 07:26:44;;;;;;;9.65;4.88;;;21.80;99.90;;;;;;5034971;28;20217;-80
2023/06/29 07:29:11;;;;;;;8.13;5.55;;;22.00;99.90;;;;;;5035170;28;20200;-80
2023/06/29 07:31:38;;;;;;;10.05;5.30;;;22.10;99.90;;;;;;5034884;28;20734;-80
2023/06/29 07:34:05;;;;;;;10.65;5.00;;;21.80;99.90;;;;;;5036933;28;20723;-79
2023/06/29 07:36:32;;;;;;;11.43;5.88;;;22.10;99.90;;;;;;5038022;28;20207;-79
2023/06/29 07:38:59;;;;;;;9.35;5.38;;;22.00;99.90;;;;;;5038386;28;20218;-79
2023/06/29 07:41:26;;;;;;;9.23;5.45;;;22.10;99.90;;;;;;5038589;28;20228;-81
2023/06/29 07:43:56;;;;;;;9.48;5.53;;;22.40;99.90;;;;;;5038262;28;20291;-80
2023/06/29 07:46:24;;;;;;;10.48;5.85;;;22.40;99.90;;;;;;5037767;28;20203;-80
2023/06/29 07:48:51;;;;;;;7.93;5.10;;;22.30;99.90;;;;;;5038508;28;20214;-81
2023/06/29 07:51:20;;;;;;;8.98;5.32;;;22.40;99.90;;;;;;5038555;28;20640;-79
2023/06/29 07:53:46;;;;;;;8.75;5.88;;;22.60;99.90;;;;;;5038128;28;20220;-80
2023/06/29 07:56:13;;;;;;;7.97;5.07;;;22.80;99.90;;;;;;5038066;28;20212;-79
2023/06/29 07:58:40;;;;;;;9.18;5.10;;;22.60;99.90;;;;;;5038046;28;20211;-79
2023/06/29 08:01:08;;;;;;;8.20;5.60;;;22.50;99.90;;;;;;5037880;28;20706;-80
2023/06/29 08:03:35;;;;;;;9.23;4.85;;;22.70;99.90;;;;;;5038112;28;20203;-80
2023/06/29 08:06:02;;;;;;;9.23;5.20;;;22.70;99.90;;;;;;5037722;28;20574;-79
2023/06/29 08:08:29;;;;;;;9.10;4.88;;;22.60;99.90;;;;;;5038364;28;20211;-79
2023/06/29 08:10:58;;;;;;;8.25;5.85;;;22.30;99.90;;;;;;5038085;28;20218;-79
2023/06/29 08:13:25;;;;;;;11.23;5.32;;;22.40;99.90;;;;;;5036800;28;20246;-79
2023/06/29 08:15:52;;;;;;;11.98;5.90;;;22.70;99.90;;;;;;5037118;28;20208;-79
2023/06/29 08:18:20;;;;;;;8.30;5.30;;;22.70;99.90;;;;;;5037921;28;20206;-80
2023/06/29 08:20:47;;;;;;;8.23;4.85;;;23.10;99.90;;;;;;5038582;28;20243;-80
2023/06/29 08:23:15;;;;;;;8.57;5.15;;;23.20;99.90;;;;;;5038139;28;20223;-79
2023/06/29 08:25:42;;;;;;;8.25;4.75;;;23.40;99.90;;;;;;5037303;28;20207;-80
2023/06/29 08:28:09;;;;;;;10.00;5.22;;;23.30;99.90;;;;;;5037641;28;20211;-80
2023/06/29 08:30:36;;;;;;;7.13;5.05;;;23.40;99.90;;;;;;5037056;28;20207;-80
2023/06/29 08:33:03;;;;;;;8.68;4.70;;;23.40;99.90;;;;;;5037098;28;20228;-79
2023/06/29 08:35:31;;;;;;;7.63;4.72;;;23.20;99.90;;;;;;5036793;28;20207;-80
2023/06/29 08:37:58;;;;;;;6.68;4.68;;;23.60;99.90;;;;;;5037661;28;20593;-80
2023/06/29 08:40:26;;;;;;;8.40;4.97;;;23.40;99.90;;;;;;5038599;28;20200;-80
2023/06/29 08:42:53;;;;;;;7.95;4.70;;;23.30;99.90;;;;;;5037822;28;20581;-80
2023/06/29 08:45:20;;;;;;;10.38;5.65;;;23.20;99.90;;;;;;5036897;28;20210;-80
2023/06/29 08:47:51;;;;;;;9.50;5.20;;;23.70;99.90;;;;;;5037775;28;20213;-80
2023/06/29 08:50:23;;;;;;;9.55;5.15;;;23.70;99.90;;;;;;5036884;28;20300;-81
2023/06/29 08:52:51;;;;;;;8.80;5.45;;;23.80;99.90;;;;;;5037511;28;20223;-80
2023/06/29 08:55:18;;;;;;;10.75;5.97;;;23.60;99.90;;;;;;5036690;28;20222;-80
2023/06/29 08:57:45;;;;;;;7.50;4.68;;;23.60;99.90;;;;;;5028546;28;20196;-80
2023/06/29 09:00:14;;;;;;;5.78;4.40;;;23.80;99.90;;;;;;5036049;28;20580;-80
2023/06/29 09:02:41;;;;;;;6.25;4.63;;;23.70;99.90;;;;;;5029174;28;20219;-80
2023/06/29 09:05:11;;;;;;;7.50;4.82;;;23.40;99.90;;;;;;5035501;28;20683;-79
2023/06/29 09:07:40;;;;;;;6.28;4.32;;;23.50;99.90;;;;;;5036407;28;20239;-79
2023/06/29 09:10:10;;;;;;;9.52;5.10;;;23.60;99.90;;;;;;5035698;28;20200;-80
2023/06/29 09:12:37;;;;;;;10.43;4.85;;;23.40;99.90;;;;;;5027922;28;20228;-80
2023/06/29 09:15:09;;;;;;;8.00;4.68;;;23.40;99.90;;;;;;5032382;28;20298;-80
2023/06/29 09:17:36;;;;;;;8.60;5.13;;;23.60;99.90;;;;;;5036007;28;20254;-80
2023/06/29 09:20:13;;;;;;;7.57;4.88;;;23.70;99.90;;;;;;5036925;28;20202;-81
2023/06/29 09:22:40;;;;;;;7.60;5.10;;;23.70;99.90;;;;;;5036967;28;20235;-81
2023/06/29 09:25:10;;;;;;;6.93;4.63;;;23.30;99.90;;;;;;5030800;28;20199;-80
2023/06/29 09:27:38;;;;;;;7.90;4.80;;;23.50;99.90;;;;;;5035676;28;20302;-80
2023/06/29 09:30:06;;;;;;;8.95;5.47;;;23.70;99.90;;;;;;5036475;28;20200;-80
2023/06/29 09:32:38;;;;;;;7.15;4.80;;;23.70;99.90;;;;;;5034912;28;20699;-80
2023/06/29 09:35:09;;;;;;;9.43;5.60;;;23.70;99.90;;;;;;5032505;28;20201;-80
2023/06/29 09:37:37;;;;;;;6.82;4.70;;;23.70;99.90;;;;;;5034430;28;20204;-80
2023/06/29 09:40:09;;;;;;;7.57;4.68;;;23.40;99.90;;;;;;5036059;28;20208;-80
2023/06/29 09:42:38;;;;;;;9.52;5.00;;;23.60;99.90;;;;;;5018757;28;20314;-80
2023/06/29 09:45:11;;;;;;;7.95;4.63;;;23.90;99.90;;;;;;5035809;28;20203;-81
2023/06/29 09:47:40;;;;;;;6.18;4.47;;;24.00;99.90;;;;;;5035950;28;20234;-80
2023/06/29 09:50:17;;;;;;;6.55;4.45;;;24.10;99.90;;;;;;5035235;28;20204;-80
2023/06/29 09:52:46;;;;;;;5.75;4.45;;;24.10;99.90;;;;;;5036698;28;20306;-79
2023/06/29 09:55:13;;;;;;;7.53;4.95;;;24.00;99.90;;;;;;5035495;28;20559;-80
2023/06/29 09:57:43;;;;;;;9.18;5.38;;;23.80;99.90;;;;;;5035767;28;20215;-80
2023/06/29 10:00:12;;;;;;;6.90;4.65;;;23.60;99.90;;;;;;5035944;28;20203;-80
2023/06/29 10:02:39;;;;;;;6.60;4.45;;;23.80;99.90;;;;;;5034392;28;20215;-79
2023/06/29 10:05:06;;;;;;;7.57;4.90;;;23.90;99.90;;;;;;5035536;28;20560;-80
2023/06/29 10:07:34;;;;;;;6.75;5.15;;;23.90;99.90;;;;;;5035905;28;20200;-80
2023/06/29 10:10:04;;;;;;;8.25;5.03;;;23.90;99.90;;;;;;5035528;28;20219;-79
2023/06/29 10:12:32;;;;;;;8.40;5.90;;;23.80;99.90;;;;;;5035486;28;20663;-80
2023/06/29 10:15:08;;;;;;;6.25;5.18;;;23.90;99.90;;;;;;5035017;28;20219;-80
2023/06/29 10:17:41;;;;;;;8.20;5.43;;;23.80;99.90;;;;;;5035323;28;20294;-80
2023/06/29 10:20:10;;;;;;;5.97;5.00;;;23.70;99.90;;;;;;5035804;28;20207;-80
2023/06/29 10:22:39;;;;;;;6.93;5.13;;;23.80;99.90;;;;;;5035692;28;20228;-79
2023/06/29 10:25:10;;;;;;;8.85;5.53;;;23.70;99.90;;;;;;5034913;28;20203;-80
2023/06/29 10:27:39;;;;;;;7.38;4.88;;;23.70;99.90;;;;;;5035946;28;20203;-79
2023/06/29 10:30:08;;;;;;;6.47;5.10;;;23.80;99.90;;;;;;5035604;28;20673;-79
2023/06/29 10:32:37;;;;;;;11.85;5.75;;;23.70;99.90;;;;;;5035281;28;20711;-81
2023/06/29 10:35:05;;;;;;;8.70;5.22;;;23.70;99.90;;;;;;5035338;28;20254;-80
2023/06/29 10:37:33;;;;;;;9.48;4.88;;;23.70;99.90;;;;;;5035328;28;20234;-80
2023/06/29 10:40:00;;;;;;;7.55;5.15;;;23.70;99.90;;;;;;5034839;28;20214;-80
2023/06/29 10:42:50;;;;;;;9.65;6.07;;;23.70;99.90;;;;;;5034759;28;20259;-79
2023/06/29 10:45:38;;;;;;;8.32;5.30;;;23.70;99.90;;;;;;5034668;28;20203;-80
2023/06/29 10:48:08;;;;;;;7.63;5.75;;;23.80;99.90;;;;;;5029461;28;20299;-80
2023/06/29 10:50:44;;;;;;;9.30;6.80;;;23.80;99.90;;;;;;5034190;28;20666;-81
2023/06/29 10:53:13;;;;;;;7.93;5.60;;;23.60;99.90;;;;;;5033566;28;20494;-79
2023/06/29 10:55:43;;;;;;;10.07;5.63;;;23.50;99.90;;;;;;5033607;28;20204;-80
2023/06/29 10:58:20;;;;;;;9.63;6.05;;;23.70;99.90;;;;;;5034402;28;20198;-80
2023/06/29 11:00:49;;;;;;;10.30;6.38;;;23.90;99.90;;;;;;5034971;28;20589;-81
2023/06/29 11:03:16;;;;;;;8.23;5.70;;;23.90;99.90;;;;;;5034832;28;20203;-81
2023/06/29 11:05:44;;;;;;;9.23;6.30;;;23.90;99.90;;;;;;5035218;28;20203;-80
2023/06/29 11:08:11;;;;;;;8.85;6.15;;;23.80;99.90;;;;;;5036595;28;20273;-80
2023/06/29 11:10:38;;;;;;;11.05;6.40;;;23.90;99.90;;;;;;5040077;28;20213;-80
2023/06/29 11:13:09;;;;;;;9.75;6.70;;;23.70;99.90;;;;;;5040146;28;20214;-80
2023/06/29 11:15:36;;;;;;;9.32;5.90;;;23.90;99.90;;;;;;5039079;28;20207;-81
2023/06/29 11:18:06;;;;;;;10.00;6.00;;;23.90;99.90;;;;;;5039035;28;20229;-82
2023/06/29 11:20:34;;;;;;;9.98;6.05;;;23.70;99.90;;;;;;5039526;28;20204;-81
2023/06/29 11:23:02;;;;;;;9.75;6.30;;;23.70;99.90;;;;;;5039646;28;20195;-82
2023/06/29 11:25:30;;;;;;;11.00;7.38;;;23.80;99.90;;;;;;5039069;28;20551;-82
2023/06/29 11:27:58;;;;;;;11.13;6.63;;;23.80;99.90;;;;;;5038855;28;20207;-80
2023/06/29 11:30:25;;;;;;;13.52;6.60;;;24.00;99.90;;;;;;5038329;28;20199;-82
2023/06/29 11:32:53;;;;;;;8.43;6.43;;;24.10;99.90;;;;;;5039195;28;20202;-81
2023/06/29 11:35:22;;;;;;;7.88;5.80;;;24.20;99.90;;;;;;5035836;28;20306;-80
2023/06/29 11:37:51;;;;;;;11.07;6.57;;;24.20;99.90;;;;;;5038652;28;20192;-80
2023/06/29 11:40:20;;;;;;;8.15;6.10;;;24.00;99.90;;;;;;5038335;28;20725;-81
2023/06/29 11:42:48;;;;;;;13.23;7.20;;;24.20;99.90;;;;;;5038205;28;20192;-80
2023/06/29 11:45:15;;;;;;;8.98;6.43;;;24.30;99.90;;;;;;5038867;28;20191;-81
2023/06/29 11:47:43;;;;;;;10.15;6.95;;;24.20;99.90;;;;;;5038077;28;20219;-81
2023/06/29 11:50:11;;;;;;;11.32;7.22;;;24.40;99.90;;;;;;5038956;28;20586;-81
2023/06/29 11:52:42;;;;;;;11.05;7.05;;;24.60;99.90;;;;;;5038542;28;20713;-80
2023/06/29 11:55:12;;;;;;;14.32;7.28;;;24.70;99.90;;;;;;5038637;28;20247;-80
2023/06/29 11:57:39;;;;;;;12.50;6.88;;;24.70;99.90;;;;;;5038640;28;20199;-81
2023/06/29 12:00:26;;;;;;;9.20;6.82;;;24.70;99.90;;;;;;5038224;28;20199;-81
2023/06/29 12:02:53;;;;;;;9.18;7.07;;;24.40;99.90;;;;;;5034619;28;20199;-81
2023/06/29 12:05:19;;;;;;;11.05;7.95;;;24.50;99.90;;;;;;5038047;28;20210;-80
2023/06/29 12:07:48;;;;;;;12.32;7.72;;;24.50;99.90;;;;;;5038450;28;20199;-78
2023/06/29 12:10:19;;;;;;;15.23;8.38;;;24.70;99.90;;;;;;5037928;28;20210;-81
2023/06/29 12:12:49;;;;;;;19.80;12.57;;;24.60;99.90;;;;;;5038385;28;20212;-79
2023/06/29 12:15:17;;;;;;;17.13;10.27;;;24.70;99.90;;;;;;5036125;28;20220;-79
2023/06/29 12:17:45;;;;;;;17.70;9.82;;;24.80;99.90;;;;;;5037348;28;20686;-79
2023/06/29 12:20:14;;;;;;;17.45;9.88;;;24.80;99.90;;;;;;5035941;28;20196;-79
2023/06/29 12:22:41;;;;;;;19.48;10.90;;;24.90;99.90;;;;;;5037951;28;20223;-79
2023/06/29 12:25:12;;;;;;;15.93;10.25;;;25.00;99.90;;;;;;5036770;28;20212;-82
2023/06/29 12:27:40;;;;;;;20.13;11.32;;;25.10;99.90;;;;;;5035825;28;20204;-80
2023/06/29 12:30:08;;;;;;;14.80;9.70;;;24.70;99.90;;;;;;5037590;28;20559;-80
2023/06/29 12:32:35;;;;;;;15.77;9.73;;;25.10;99.90;;;;;;5034221;28;20212;-80
2023/06/29 12:35:01;;;;;;;15.18;9.52;;;25.10;99.90;;;;;;5035839;28;20227;-79
2023/06/29 12:37:28;;;;;;;16.20;9.75;;;25.30;99.90;;;;;;5036158;28;20214;-79
2023/06/29 12:39:55;;;;;;;15.38;9.68;;;25.30;99.90;;;;;;5031931;28;20563;-80
2023/06/29 12:42:24;;;;;;;17.92;10.13;;;25.40;99.90;;;;;;5037255;28;20700;-79
2023/06/29 12:44:51;;;;;;;16.83;9.98;;;25.40;99.90;;;;;;5016543;28;20251;-80